Time;durP1;ratioP1;P1;durP2;ratioP2;P2;SDS_P1;SDS_P2;PMS_P1;PMS_P2;Temp;Humidity;BMP_temperature;BMP_pressure;BME280_temperature;BME280_humidity;BME280_pressure;Samples;Min_cycle;Max_cycle;Signal;HPM_P1;HPM_P2
2024/01/19 00:01:33;;;;;;;8.03;3.03;;;-0.60;92.00;;;;;;5034125;28;20034;-85
2024/01/19 00:03:59;;;;;;;10.07;3.30;;;-0.60;92.00;;;;;;5035313;28;20033;-84
2024/01/19 00:06:25;;;;;;;11.03;3.60;;;-0.60;92.10;;;;;;5035544;28;20022;-85
2024/01/19 00:08:50;;;;;;;14.17;3.37;;;-0.60;92.10;;;;;;5035078;28;20017;-84
2024/01/19 00:11:16;;;;;;;8.87;3.27;;;-0.60;92.10;;;;;;5033667;28;20086;-85
2024/01/19 00:13:42;;;;;;;8.00;3.37;;;-0.60;92.20;;;;;;5035042;28;20021;-84
2024/01/19 00:16:08;;;;;;;9.93;2.97;;;-0.70;92.20;;;;;;5034014;28;20028;-85
2024/01/19 00:18:34;;;;;;;8.90;2.50;;;-0.70;92.20;;;;;;5033651;28;20477;-84
2024/01/19 00:21:00;;;;;;;9.23;3.20;;;-0.70;92.30;;;;;;5034950;28;20558;-84
2024/01/19 00:23:25;;;;;;;9.90;2.83;;;-0.70;92.70;;;;;;5035129;28;20021;-85
2024/01/19 00:25:51;;;;;;;10.03;3.23;;;-0.70;92.50;;;;;;5034637;28;20531;-85
2024/01/19 00:28:17;;;;;;;8.97;3.20;;;-0.60;92.50;;;;;;5034621;28;20076;-85
2024/01/19 00:30:42;;;;;;;7.13;3.60;;;-0.70;92.50;;;;;;5034903;28;20036;-85
2024/01/19 00:33:08;;;;;;;8.47;3.60;;;-0.60;92.60;;;;;;5033556;28;20018;-85
2024/01/19 00:35:34;;;;;;;8.87;3.33;;;-0.60;92.70;;;;;;5033746;28;20024;-85
2024/01/19 00:37:59;;;;;;;7.23;3.03;;;-0.60;92.80;;;;;;5033383;28;20018;-84
2024/01/19 00:40:25;;;;;;;9.30;3.13;;;-0.50;93.00;;;;;;5034858;28;20120;-85
2024/01/19 00:42:51;;;;;;;7.80;3.00;;;-0.50;93.20;;;;;;5035335;28;20103;-85
2024/01/19 00:45:16;;;;;;;10.60;2.60;;;-0.40;93.40;;;;;;5034802;28;20108;-85
2024/01/19 00:47:42;;;;;;;7.03;3.13;;;-0.40;93.90;;;;;;5033352;28;20075;-85
2024/01/19 00:50:09;;;;;;;8.10;2.97;;;-0.30;94.00;;;;;;5033314;28;20025;-85
2024/01/19 00:52:35;;;;;;;7.00;2.87;;;-0.30;94.40;;;;;;5033053;28;20056;-85
2024/01/19 00:55:01;;;;;;;10.03;2.63;;;-0.20;94.80;;;;;;5034077;28;20022;-85
2024/01/19 00:57:26;;;;;;;8.07;2.53;;;-0.20;95.40;;;;;;5034451;28;20100;-85
2024/01/19 00:59:52;;;;;;;7.00;2.10;;;-0.10;95.80;;;;;;5034278;28;20033;-85
2024/01/19 01:02:19;;;;;;;7.60;1.80;;;0.00;96.10;;;;;;5032975;28;20538;-85
2024/01/19 01:04:45;;;;;;;5.37;1.73;;;0.10;96.10;;;;;;5034018;28;20053;-85
2024/01/19 01:07:10;;;;;;;4.43;1.10;;;0.20;96.20;;;;;;5034082;28;20052;-84
2024/01/19 01:09:36;;;;;;;4.93;1.20;;;0.20;96.20;;;;;;5032470;28;20014;-85
2024/01/19 01:12:03;;;;;;;6.67;1.50;;;0.40;97.40;;;;;;5034231;28;20025;-85
2024/01/19 01:14:29;;;;;;;6.50;1.50;;;0.40;97.50;;;;;;5032565;28;20036;-85
2024/01/19 01:16:55;;;;;;;5.23;1.53;;;0.50;97.40;;;;;;5032153;28;20021;-85
2024/01/19 01:19:20;;;;;;;5.17;1.60;;;0.50;97.10;;;;;;5034055;28;20083;-85
2024/01/19 01:21:46;;;;;;;2.20;1.10;;;0.40;97.00;;;;;;5033614;28;20416;-84
2024/01/19 01:24:11;;;;;;;5.93;1.40;;;0.40;96.80;;;;;;5033492;28;20059;-85
2024/01/19 01:26:37;;;;;;;5.13;1.07;;;0.50;96.70;;;;;;5034134;28;20028;-84
2024/01/19 01:29:03;;;;;;;3.53;0.97;;;0.40;96.90;;;;;;5033732;28;20167;-84
2024/01/19 01:31:28;;;;;;;3.27;1.10;;;0.40;97.00;;;;;;5033919;28;20392;-84
2024/01/19 01:33:54;;;;;;;4.70;1.43;;;0.50;97.50;;;;;;5033657;28;20026;-85
2024/01/19 01:36:19;;;;;;;4.13;1.10;;;0.50;97.50;;;;;;5033654;28;20040;-82
2024/01/19 01:38:45;;;;;;;4.73;0.87;;;0.50;97.50;;;;;;5032242;28;20037;-83
2024/01/19 01:41:11;;;;;;;4.67;1.03;;;0.50;97.40;;;;;;5033585;28;20033;-83
2024/01/19 01:43:36;;;;;;;3.23;0.83;;;0.50;97.90;;;;;;5033341;28;20025;-84
2024/01/19 01:46:02;;;;;;;5.87;0.93;;;0.50;97.80;;;;;;5033369;28;20032;-83
2024/01/19 01:48:28;;;;;;;2.70;1.10;;;0.50;97.60;;;;;;5032212;28;20383;-84
2024/01/19 01:50:55;;;;;;;1.40;0.80;;;0.50;97.60;;;;;;5032091;28;20040;-83
2024/01/19 01:53:22;;;;;;;1.73;0.80;;;0.40;97.80;;;;;;5033381;28;20021;-83
2024/01/19 01:55:48;;;;;;;2.20;0.63;;;0.40;98.00;;;;;;5031993;28;20053;-84
2024/01/19 01:58:17;;;;;;;2.77;1.00;;;0.50;97.80;;;;;;5032155;28;20018;-84
2024/01/19 02:00:44;;;;;;;1.73;0.63;;;0.50;97.90;;;;;;5032032;28;20433;-84
2024/01/19 02:03:10;;;;;;;3.77;0.73;;;0.40;97.80;;;;;;5031983;28;20079;-83
2024/01/19 02:05:36;;;;;;;2.07;0.87;;;0.40;97.80;;;;;;5032880;28;20025;-83
2024/01/19 02:08:02;;;;;;;1.50;0.70;;;0.40;97.90;;;;;;5033170;28;20025;-83
2024/01/19 02:10:27;;;;;;;2.13;1.00;;;0.40;97.80;;;;;;5033182;28;20354;-84
2024/01/19 02:12:54;;;;;;;1.90;0.70;;;0.30;97.70;;;;;;5031761;28;20045;-83
2024/01/19 02:15:22;;;;;;;3.53;0.77;;;0.30;97.60;;;;;;5031880;28;20033;-83
2024/01/19 02:17:52;;;;;;;3.23;0.90;;;0.30;97.60;;;;;;5033089;28;20101;-84
2024/01/19 02:20:17;;;;;;;2.43;0.70;;;0.20;97.60;;;;;;5032684;28;20021;-83
2024/01/19 02:22:44;;;;;;;6.03;0.90;;;0.20;97.60;;;;;;5033234;28;20030;-84
2024/01/19 02:25:11;;;;;;;1.57;0.70;;;0.10;97.80;;;;;;5031744;28;20037;-83
2024/01/19 02:27:37;;;;;;;1.97;0.70;;;0.20;97.90;;;;;;5033054;28;20018;-84
2024/01/19 02:30:03;;;;;;;2.23;0.70;;;0.10;97.90;;;;;;5035281;28;20063;-84
2024/01/19 02:32:29;;;;;;;2.40;0.70;;;0.10;97.90;;;;;;5036790;28;20025;-84
2024/01/19 02:34:54;;;;;;;3.60;0.73;;;0.10;97.90;;;;;;5035633;28;20465;-83
2024/01/19 02:37:20;;;;;;;2.13;0.87;;;0.10;97.80;;;;;;5035757;28;20021;-84
2024/01/19 02:39:46;;;;;;;1.33;0.60;;;0.00;97.90;;;;;;5036991;28;20029;-83
2024/01/19 02:42:12;;;;;;;2.53;0.70;;;0.00;97.90;;;;;;5036622;28;20477;-83
2024/01/19 02:44:37;;;;;;;2.00;0.90;;;0.00;98.00;;;;;;5036849;28;20359;-83
2024/01/19 02:47:03;;;;;;;1.40;0.80;;;-0.10;98.00;;;;;;5036862;28;20490;-83
2024/01/19 02:49:29;;;;;;;3.00;1.00;;;0.00;98.30;;;;;;5036968;28;20025;-84
2024/01/19 02:51:55;;;;;;;3.50;0.90;;;0.00;98.30;;;;;;5036356;28;20481;-83
2024/01/19 02:54:20;;;;;;;3.63;1.00;;;0.00;98.40;;;;;;5036769;28;20050;-84
2024/01/19 02:56:46;;;;;;;4.90;1.00;;;0.00;98.40;;;;;;5036908;28;20028;-84
2024/01/19 02:59:12;;;;;;;5.03;1.20;;;-0.10;98.40;;;;;;5036601;28;20068;-84
2024/01/19 03:01:37;;;;;;;3.23;1.23;;;-0.10;98.50;;;;;;5036245;28;20112;-84
2024/01/19 03:04:03;;;;;;;4.47;1.40;;;-0.10;98.50;;;;;;5036226;28;20096;-84
2024/01/19 03:06:29;;;;;;;2.50;1.20;;;-0.10;98.60;;;;;;5036239;28;20389;-84
2024/01/19 03:08:55;;;;;;;3.73;1.20;;;-0.10;98.60;;;;;;5036720;28;20057;-84
2024/01/19 03:11:20;;;;;;;4.27;1.47;;;-0.10;98.60;;;;;;5034985;28;20017;-84
2024/01/19 03:13:46;;;;;;;4.40;1.83;;;-0.20;98.60;;;;;;5036394;28;20385;-84
2024/01/19 03:16:12;;;;;;;3.23;1.97;;;-0.10;99.00;;;;;;5036180;28;20423;-84
2024/01/19 03:18:37;;;;;;;9.00;2.13;;;-0.10;99.20;;;;;;5036070;28;20021;-84
2024/01/19 03:21:03;;;;;;;6.77;2.57;;;-0.10;99.50;;;;;;5034708;28;20025;-84
2024/01/19 03:23:29;;;;;;;10.73;3.00;;;-0.10;99.40;;;;;;5036182;28;20140;-84
2024/01/19 03:25:54;;;;;;;8.90;2.50;;;-0.10;99.90;;;;;;5034595;28;20501;-84
2024/01/19 03:28:20;;;;;;;4.90;2.53;;;-0.10;99.60;;;;;;5034662;28;20018;-84
2024/01/19 03:30:46;;;;;;;7.87;3.13;;;-0.10;99.60;;;;;;5035942;28;20081;-84
2024/01/19 03:33:11;;;;;;;6.27;2.80;;;-0.10;99.70;;;;;;5034423;28;20021;-84
2024/01/19 03:35:37;;;;;;;7.90;3.00;;;-0.10;99.50;;;;;;5036026;28;20032;-84
2024/01/19 03:38:02;;;;;;;7.93;2.53;;;-0.10;99.70;;;;;;5034580;28;20120;-84
2024/01/19 03:40:28;;;;;;;7.57;3.20;;;-0.10;99.60;;;;;;5033939;28;20116;-84
2024/01/19 03:42:54;;;;;;;9.07;2.93;;;-0.20;99.60;;;;;;5034325;28;20022;-84
2024/01/19 03:45:19;;;;;;;7.70;3.27;;;-0.20;99.60;;;;;;5035633;28;20075;-84
2024/01/19 03:47:46;;;;;;;5.67;2.90;;;-0.20;99.70;;;;;;5035494;28;20485;-84
2024/01/19 03:50:11;;;;;;;11.07;3.43;;;-0.20;99.80;;;;;;5035440;28;20025;-85
2024/01/19 03:52:37;;;;;;;9.13;2.90;;;-0.10;99.70;;;;;;5035575;28;20056;-84
2024/01/19 03:55:06;;;;;;;9.07;3.90;;;-0.20;99.80;;;;;;5035510;28;20104;-84
2024/01/19 03:57:32;;;;;;;7.93;3.17;;;-0.30;99.70;;;;;;5035525;28;20021;-84
2024/01/19 03:59:57;;;;;;;6.50;3.33;;;-0.30;99.90;;;;;;5035470;28;20377;-84
2024/01/19 04:02:23;;;;;;;10.50;4.00;;;-0.30;99.90;;;;;;5035122;28;20034;-84
2024/01/19 04:04:49;;;;;;;7.63;3.17;;;-0.30;99.90;;;;;;5034019;28;20022;-85
2024/01/19 04:07:15;;;;;;;9.23;4.30;;;-0.30;99.90;;;;;;5035744;28;20014;-85
2024/01/19 04:09:41;;;;;;;7.10;3.23;;;-0.40;99.90;;;;;;5034189;28;20028;-85
2024/01/19 04:12:14;;;;;;;7.50;3.33;;;-0.40;99.90;;;;;;5035179;28;20022;-85
2024/01/19 04:14:44;;;;;;;9.35;3.47;;;-0.40;99.90;;;;;;5035184;28;20109;-84
2024/01/19 04:17:11;;;;;;;10.10;3.43;;;-0.40;99.90;;;;;;5033569;28;20025;-85
2024/01/19 04:19:37;;;;;;;7.63;3.63;;;-0.40;99.90;;;;;;5034938;28;20021;-84
2024/01/19 04:22:04;;;;;;;8.83;3.60;;;-0.50;99.90;;;;;;5034990;28;20044;-85
2024/01/19 04:24:29;;;;;;;7.53;3.57;;;-0.50;99.90;;;;;;5033703;28;20484;-84
2024/01/19 04:26:55;;;;;;;7.53;2.93;;;-0.50;99.90;;;;;;5034836;28;20057;-84
2024/01/19 04:29:21;;;;;;;6.53;3.67;;;-0.50;99.90;;;;;;5034686;28;20017;-85
2024/01/19 04:31:46;;;;;;;8.27;3.73;;;-0.50;99.90;;;;;;5033351;28;20053;-84
2024/01/19 04:34:12;;;;;;;6.93;3.17;;;-0.50;99.90;;;;;;5033433;28;20500;-84
2024/01/19 04:36:38;;;;;;;8.37;3.23;;;-0.50;99.90;;;;;;5033170;28;20032;-85
2024/01/19 04:39:04;;;;;;;7.47;3.17;;;-0.60;99.90;;;;;;5034700;28;20497;-83
2024/01/19 04:41:31;;;;;;;7.23;3.70;;;-0.50;99.90;;;;;;5034717;28;20049;-83
2024/01/19 04:43:56;;;;;;;8.63;3.90;;;-0.50;99.90;;;;;;5033048;28;20013;-83
2024/01/19 04:46:22;;;;;;;8.60;3.40;;;-0.50;99.90;;;;;;5033387;28;20026;-84
2024/01/19 04:48:47;;;;;;;10.23;3.60;;;-0.50;99.90;;;;;;5034725;28;20029;-84
2024/01/19 04:51:13;;;;;;;10.20;3.67;;;-0.50;99.90;;;;;;5032267;28;20026;-84
2024/01/19 04:53:39;;;;;;;6.73;3.03;;;-0.40;99.90;;;;;;5032905;28;20096;-84
2024/01/19 04:56:08;;;;;;;10.37;3.40;;;-0.40;99.90;;;;;;5034329;28;20552;-84
2024/01/19 04:58:36;;;;;;;7.73;3.10;;;-0.40;99.90;;;;;;5034436;28;20033;-84
2024/01/19 05:01:03;;;;;;;5.70;2.87;;;-0.40;99.90;;;;;;5034622;28;20029;-84
2024/01/19 05:03:29;;;;;;;6.93;2.50;;;-0.40;99.90;;;;;;5034027;28;20361;-84
2024/01/19 05:05:54;;;;;;;7.83;2.70;;;-0.40;99.90;;;;;;5034103;28;20022;-84
2024/01/19 05:08:20;;;;;;;6.57;2.87;;;-0.40;99.90;;;;;;5034018;28;20112;-84
2024/01/19 05:10:46;;;;;;;7.10;2.80;;;-0.40;99.90;;;;;;5033858;28;20044;-84
2024/01/19 05:13:11;;;;;;;6.83;3.23;;;-0.50;99.90;;;;;;5033872;28;20030;-84
2024/01/19 05:15:38;;;;;;;7.23;2.70;;;-0.40;99.90;;;;;;5034104;28;20033;-84
2024/01/19 05:18:04;;;;;;;7.97;3.23;;;-0.30;99.90;;;;;;5032371;28;20025;-84
2024/01/19 05:20:29;;;;;;;6.10;2.60;;;-0.30;99.90;;;;;;5033774;28;20090;-84
2024/01/19 05:22:55;;;;;;;7.10;3.20;;;-0.20;99.90;;;;;;5033635;28;20504;-84
2024/01/19 05:25:21;;;;;;;8.97;4.60;;;-0.20;99.90;;;;;;5032399;28;20080;-84
2024/01/19 05:27:50;;;;;;;8.07;4.03;;;-0.10;99.90;;;;;;5033508;28;20064;-84
2024/01/19 05:30:16;;;;;;;10.80;3.53;;;-0.10;99.90;;;;;;5033671;28;20022;-84
2024/01/19 05:32:42;;;;;;;7.97;4.23;;;0.00;99.90;;;;;;5033088;28;20021;-84
2024/01/19 05:35:08;;;;;;;9.70;3.07;;;-0.10;99.90;;;;;;5033832;28;20021;-83
2024/01/19 05:37:34;;;;;;;10.17;4.10;;;0.10;99.90;;;;;;5033773;28;20523;-84
2024/01/19 05:40:00;;;;;;;10.77;3.87;;;0.10;99.90;;;;;;5032163;28;20026;-84
2024/01/19 05:42:25;;;;;;;9.50;3.10;;;0.10;99.90;;;;;;5033232;28;20025;-84
2024/01/19 05:44:51;;;;;;;10.23;3.03;;;0.10;99.90;;;;;;5032036;28;20022;-84
2024/01/19 05:47:16;;;;;;;8.40;3.23;;;0.10;99.90;;;;;;5033406;28;20021;-84
2024/01/19 05:49:42;;;;;;;8.93;3.50;;;0.20;99.90;;;;;;5024409;28;20033;-84
2024/01/19 05:52:08;;;;;;;5.93;3.00;;;0.10;99.90;;;;;;5025140;28;20045;-84
2024/01/19 05:54:34;;;;;;;6.23;2.83;;;0.20;99.90;;;;;;5033346;28;20026;-84
2024/01/19 05:57:00;;;;;;;5.83;2.93;;;0.20;99.90;;;;;;5031817;28;20025;-84
2024/01/19 05:59:25;;;;;;;8.67;3.30;;;0.30;99.90;;;;;;5033086;28;20504;-84
2024/01/19 06:01:51;;;;;;;8.13;2.77;;;0.20;99.90;;;;;;5031898;28;20026;-84
2024/01/19 06:04:18;;;;;;;6.63;2.70;;;0.20;99.90;;;;;;5033645;28;20025;-84
2024/01/19 06:06:43;;;;;;;7.53;2.97;;;0.20;99.90;;;;;;5031847;28;20033;-84
2024/01/19 06:09:10;;;;;;;5.87;2.73;;;0.20;99.90;;;;;;5033231;28;20031;-84
2024/01/19 06:11:36;;;;;;;9.90;3.20;;;0.20;99.90;;;;;;5032982;28;20030;-84
2024/01/19 06:14:02;;;;;;;5.63;2.53;;;0.10;99.90;;;;;;5032752;28;20018;-84
2024/01/19 06:16:29;;;;;;;6.70;2.30;;;0.10;99.90;;;;;;5031852;28;20025;-84
2024/01/19 06:18:54;;;;;;;6.77;2.90;;;0.10;99.90;;;;;;5031812;28;20072;-84
2024/01/19 06:21:20;;;;;;;7.53;2.47;;;0.00;99.90;;;;;;5032878;28;20037;-84
2024/01/19 06:23:46;;;;;;;5.90;2.20;;;0.00;99.90;;;;;;5033000;28;20086;-85
2024/01/19 06:26:12;;;;;;;6.10;2.47;;;-0.10;99.90;;;;;;5018098;28;20312;-83
2024/01/19 06:28:38;;;;;;;6.97;2.23;;;-0.10;99.90;;;;;;5019152;28;20529;-84
2024/01/19 06:31:05;;;;;;;5.53;2.60;;;-0.10;99.90;;;;;;5031672;28;20021;-84
2024/01/19 06:33:32;;;;;;;7.47;2.80;;;-0.10;99.90;;;;;;5032810;28;20491;-81
2024/01/19 06:35:57;;;;;;;4.70;2.10;;;-0.20;99.90;;;;;;5031377;28;20022;-81
2024/01/19 06:38:23;;;;;;;5.57;2.77;;;-0.20;99.90;;;;;;5032718;28;20109;-80
2024/01/19 06:40:50;;;;;;;5.33;2.30;;;-0.20;99.90;;;;;;5031540;28;20036;-82
2024/01/19 06:43:16;;;;;;;6.27;3.20;;;-0.20;99.90;;;;;;5031438;28;20112;-82
2024/01/19 06:45:41;;;;;;;7.33;3.00;;;-0.20;99.90;;;;;;5032706;28;20470;-82
2024/01/19 06:48:07;;;;;;;4.93;2.37;;;-0.20;99.90;;;;;;5031565;28;20033;-82
2024/01/19 06:50:33;;;;;;;11.77;2.97;;;-0.20;99.90;;;;;;5032473;28;20040;-82
2024/01/19 06:53:00;;;;;;;6.07;3.13;;;-0.10;99.90;;;;;;5031299;28;20071;-81
2024/01/19 06:55:27;;;;;;;6.20;3.07;;;-0.10;99.90;;;;;;5031171;28;20048;-82
2024/01/19 06:57:53;;;;;;;8.60;3.07;;;-0.10;99.90;;;;;;5032797;28;20056;-82
2024/01/19 07:00:19;;;;;;;11.73;3.40;;;0.00;99.90;;;;;;5020840;28;20053;-82
2024/01/19 07:02:45;;;;;;;7.70;3.67;;;0.20;99.90;;;;;;5026631;28;20037;-82
2024/01/19 07:05:11;;;;;;;8.80;4.07;;;0.10;99.90;;;;;;5032604;28;20021;-82
2024/01/19 07:07:36;;;;;;;7.03;3.33;;;0.10;99.90;;;;;;5032532;28;20017;-81
2024/01/19 07:10:02;;;;;;;8.47;3.70;;;0.10;99.90;;;;;;5031783;28;20041;-81
2024/01/19 07:12:28;;;;;;;8.47;4.47;;;0.10;99.90;;;;;;5024878;28;20041;-82
2024/01/19 07:14:53;;;;;;;12.10;4.63;;;0.10;99.90;;;;;;5025091;28;20021;-81
2024/01/19 07:17:19;;;;;;;8.57;4.20;;;0.00;99.90;;;;;;5025306;28;20021;-82
2024/01/19 07:19:45;;;;;;;10.40;4.67;;;0.00;99.90;;;;;;5024344;28;20022;-82
2024/01/19 07:22:10;;;;;;;8.77;4.07;;;0.10;99.90;;;;;;5025057;28;20021;-82
2024/01/19 07:24:36;;;;;;;10.77;4.63;;;0.10;99.90;;;;;;5024874;28;20057;-81
2024/01/19 07:27:03;;;;;;;10.73;4.90;;;0.10;99.90;;;;;;5026140;28;20020;-82
2024/01/19 07:29:31;;;;;;;10.27;4.80;;;0.10;99.90;;;;;;5025110;28;20037;-82
2024/01/19 07:31:57;;;;;;;13.57;5.17;;;0.00;99.90;;;;;;5024507;28;21507;-82
2024/01/19 07:34:22;;;;;;;9.50;5.10;;;0.00;99.90;;;;;;5026645;28;20033;-82
2024/01/19 07:36:48;;;;;;;17.53;5.57;;;0.00;99.90;;;;;;5025231;28;20064;-82
2024/01/19 07:39:14;;;;;;;9.13;4.87;;;0.00;99.90;;;;;;5024701;28;20026;-82
2024/01/19 07:41:40;;;;;;;9.90;4.33;;;-0.10;99.90;;;;;;5028677;28;20124;-82
2024/01/19 07:44:06;;;;;;;10.33;4.93;;;-0.10;99.90;;;;;;5034628;28;20036;-82
2024/01/19 07:46:32;;;;;;;9.80;4.90;;;-0.10;99.90;;;;;;5026069;28;20390;-82
2024/01/19 07:48:58;;;;;;;10.70;5.03;;;-0.10;99.90;;;;;;5025564;28;20021;-82
2024/01/19 07:51:24;;;;;;;10.53;5.13;;;-0.20;99.90;;;;;;5035254;28;20029;-81
2024/01/19 07:53:50;;;;;;;10.37;4.83;;;-0.20;99.90;;;;;;5035505;28;20420;-81
2024/01/19 07:56:16;;;;;;;13.90;5.50;;;-0.20;99.90;;;;;;5035218;28;20064;-81
2024/01/19 07:58:44;;;;;;;11.77;5.70;;;-0.20;99.90;;;;;;5035819;28;20022;-81
2024/01/19 08:01:10;;;;;;;9.57;5.40;;;-0.30;99.90;;;;;;5034067;28;20374;-81
2024/01/19 08:03:37;;;;;;;9.87;4.97;;;-0.20;99.90;;;;;;5033779;28;20108;-81
2024/01/19 08:06:03;;;;;;;12.63;5.23;;;-0.20;99.90;;;;;;5035195;28;20496;-82
2024/01/19 08:08:30;;;;;;;9.10;4.87;;;-0.20;99.90;;;;;;5035236;28;20370;-81
2024/01/19 08:10:55;;;;;;;10.77;5.23;;;-0.20;99.90;;;;;;5034979;28;20036;-81
2024/01/19 08:13:21;;;;;;;11.13;5.97;;;-0.20;99.90;;;;;;5035136;28;20021;-81
2024/01/19 08:15:47;;;;;;;9.50;5.30;;;-0.20;99.90;;;;;;5034618;28;20041;-81
2024/01/19 08:18:13;;;;;;;10.27;5.97;;;-0.10;99.90;;;;;;5034731;28;20060;-81
2024/01/19 08:20:39;;;;;;;11.43;5.60;;;-0.10;99.90;;;;;;5033470;28;20116;-81
2024/01/19 08:23:04;;;;;;;12.87;7.10;;;-0.10;99.90;;;;;;5034627;28;20029;-82
2024/01/19 08:25:30;;;;;;;16.00;6.83;;;-0.10;99.90;;;;;;5034363;28;20054;-82
2024/01/19 08:27:56;;;;;;;15.17;6.00;;;0.00;99.90;;;;;;5034993;28;20092;-81
2024/01/19 08:30:22;;;;;;;13.67;6.20;;;0.00;99.90;;;;;;5028759;28;20026;-81
2024/01/19 08:32:47;;;;;;;12.43;7.07;;;0.10;99.90;;;;;;5016792;28;20490;-82
2024/01/19 08:35:13;;;;;;;13.43;6.67;;;0.10;99.90;;;;;;5014927;28;20057;-82
2024/01/19 08:37:41;;;;;;;15.57;6.80;;;0.10;99.90;;;;;;5014676;28;20031;-82
2024/01/19 08:40:08;;;;;;;15.93;6.20;;;0.10;99.90;;;;;;5014701;28;20571;-83
2024/01/19 08:42:34;;;;;;;13.70;7.03;;;0.20;99.90;;;;;;5013231;28;20482;-83
2024/01/19 08:44:59;;;;;;;13.53;6.70;;;0.20;99.90;;;;;;5014879;28;20021;-81
2024/01/19 08:47:25;;;;;;;12.90;5.93;;;0.30;99.90;;;;;;5014343;28;20113;-82
2024/01/19 08:49:51;;;;;;;9.47;6.13;;;0.30;99.90;;;;;;5014608;28;20026;-82
2024/01/19 08:52:17;;;;;;;13.10;6.40;;;0.40;99.90;;;;;;5013807;28;20040;-82
2024/01/19 08:54:43;;;;;;;14.60;6.97;;;0.40;99.90;;;;;;5014683;28;20080;-82
2024/01/19 08:57:08;;;;;;;14.53;6.90;;;0.50;99.90;;;;;;5014737;28;20030;-82
2024/01/19 08:59:34;;;;;;;12.87;7.10;;;0.50;99.90;;;;;;5012666;28;20029;-82
2024/01/19 09:02:00;;;;;;;14.67;7.50;;;0.50;99.90;;;;;;5014282;28;20025;-82
2024/01/19 09:04:25;;;;;;;13.87;7.13;;;0.60;99.90;;;;;;5014369;28;20018;-82
2024/01/19 09:06:51;;;;;;;14.37;8.23;;;0.70;99.90;;;;;;5014332;28;20022;-82
2024/01/19 09:09:19;;;;;;;17.33;8.77;;;0.80;99.90;;;;;;5014498;28;20057;-82
2024/01/19 09:11:44;;;;;;;17.03;8.70;;;0.80;99.90;;;;;;5014041;28;20022;-82
2024/01/19 09:14:11;;;;;;;21.10;9.33;;;0.90;99.90;;;;;;5014388;28;20367;-82
2024/01/19 09:16:38;;;;;;;15.77;8.87;;;0.90;99.90;;;;;;5013497;28;20112;-82
2024/01/19 09:19:04;;;;;;;19.37;9.23;;;0.80;99.90;;;;;;5014573;28;20097;-82
2024/01/19 09:21:30;;;;;;;14.63;8.37;;;0.90;99.90;;;;;;5013985;28;20120;-82
2024/01/19 09:23:57;;;;;;;15.80;9.40;;;1.00;99.90;;;;;;5013774;28;20065;-82
2024/01/19 09:26:23;;;;;;;16.77;8.40;;;1.00;99.90;;;;;;5013832;28;20041;-82
2024/01/19 09:28:49;;;;;;;20.03;9.10;;;1.00;99.90;;;;;;5012606;28;20100;-82
2024/01/19 09:31:15;;;;;;;19.73;10.10;;;1.00;99.90;;;;;;5014177;28;20398;-82
2024/01/19 09:33:41;;;;;;;21.97;10.57;;;1.00;99.90;;;;;;5013661;28;20065;-82
2024/01/19 09:36:08;;;;;;;21.77;10.03;;;1.00;99.90;;;;;;5013841;28;20057;-82
2024/01/19 09:38:35;;;;;;;24.83;11.57;;;1.00;99.90;;;;;;5013198;28;20025;-82
2024/01/19 09:41:31;;;;;;;21.77;11.80;;;1.10;99.90;;;;;;5012386;28;20033;-81
2024/01/19 09:43:58;;;;;;;22.13;11.60;;;1.10;99.90;;;;;;5013977;28;20454;-82
2024/01/19 09:46:28;;;;;;;21.97;12.53;;;1.20;99.90;;;;;;5013799;28;20033;-82
2024/01/19 09:49:13;;;;;;;23.03;12.20;;;1.20;99.90;;;;;;5013410;28;20030;-83
2024/01/19 09:51:47;;;;;;;;;;;1.20;99.90;;;;;;5013836;28;20022;-82
2024/01/19 09:54:20;;;;;;;18.70;10.50;;;1.30;99.90;;;;;;5012223;28;20325;-82
2024/01/19 09:56:46;;;;;;;19.30;11.17;;;1.40;99.90;;;;;;5013466;28;20026;-82
2024/01/19 09:59:15;;;;;;;18.97;10.47;;;1.40;99.90;;;;;;5012326;28;20029;-82
2024/01/19 10:01:40;;;;;;;19.57;10.80;;;1.50;99.90;;;;;;5013067;28;20029;-82
2024/01/19 10:04:13;;;;;;;18.23;10.00;;;1.50;99.90;;;;;;5013382;28;20026;-83
2024/01/19 10:06:39;;;;;;;15.67;9.80;;;1.60;99.90;;;;;;5013447;28;20034;-83
2024/01/19 10:09:06;;;;;;;16.57;9.27;;;1.80;99.90;;;;;;5013097;28;20112;-82
2024/01/19 10:11:33;;;;;;;16.43;8.53;;;1.80;99.90;;;;;;5013557;28;20026;-83
2024/01/19 10:13:59;;;;;;;13.20;7.43;;;2.10;99.90;;;;;;5013345;28;20049;-83
2024/01/19 10:16:24;;;;;;;13.27;7.07;;;2.40;99.90;;;;;;5011794;28;20478;-83
2024/01/19 10:18:51;;;;;;;11.00;6.13;;;2.80;99.90;;;;;;5012901;28;20030;-83
2024/01/19 10:21:27;;;;;;;9.43;5.30;;;3.40;99.90;;;;;;5012072;28;20488;-83
2024/01/19 10:24:15;;;;;;;8.63;4.10;;;4.10;99.90;;;;;;5013003;28;20026;-82
2024/01/19 10:26:42;;;;;;;12.40;3.90;;;4.90;99.90;;;;;;5015552;28;20025;-82
2024/01/19 10:29:15;;;;;;;8.07;3.90;;;5.60;99.90;;;;;;5024908;28;20026;-82
2024/01/19 10:31:44;;;;;;;7.17;3.10;;;6.30;99.90;;;;;;5015431;28;20034;-83
2024/01/19 10:34:17;;;;;;;11.25;3.17;;;6.80;99.90;;;;;;5018158;28;20030;-83
2024/01/19 10:36:44;;;;;;;6.38;2.95;;;7.40;99.90;;;;;;5017887;28;20022;-83
2024/01/19 10:39:21;;;;;;;8.02;3.40;;;7.70;99.90;;;;;;5013056;28;20116;-83
2024/01/19 10:41:48;;;;;;;8.52;2.85;;;8.00;99.90;;;;;;5013044;28;20030;-83
2024/01/19 10:44:19;;;;;;;8.10;2.65;;;8.30;99.90;;;;;;5012789;28;20014;-83
2024/01/19 10:46:45;;;;;;;7.68;3.15;;;8.70;99.90;;;;;;5013767;28;20077;-83
2024/01/19 10:49:13;;;;;;;6.97;3.30;;;8.90;99.90;;;;;;5013243;28;20049;-83
2024/01/19 10:51:43;;;;;;;5.93;2.55;;;9.10;99.90;;;;;;5016698;28;20571;-83
2024/01/19 10:54:15;;;;;;;9.95;3.65;;;9.10;99.90;;;;;;5016506;28;20034;-83
2024/01/19 10:56:42;;;;;;;6.57;3.22;;;8.90;99.90;;;;;;5016714;28;20017;-83
2024/01/19 10:59:15;;;;;;;7.57;3.15;;;8.90;99.90;;;;;;5032239;28;20389;-83
2024/01/19 11:01:42;;;;;;;8.38;3.70;;;8.80;99.90;;;;;;5016763;28;20026;-83
2024/01/19 11:04:10;;;;;;;7.07;3.15;;;8.90;99.90;;;;;;5016499;28;20014;-83
2024/01/19 11:06:36;;;;;;;7.05;2.78;;;9.10;99.90;;;;;;5014988;28;20385;-84
2024/01/19 11:09:06;;;;;;;9.82;3.33;;;9.30;99.90;;;;;;5023748;28;20060;-83
2024/01/19 11:11:44;;;;;;;6.78;3.13;;;9.70;99.70;;;;;;5019647;28;20030;-83
2024/01/19 11:14:17;;;;;;;9.25;3.28;;;10.10;99.30;;;;;;5016506;28;20018;-82
2024/01/19 11:16:47;;;;;;;6.18;2.35;;;10.70;97.70;;;;;;5018693;28;20371;-83
2024/01/19 11:19:14;;;;;;;6.85;3.03;;;11.00;96.90;;;;;;5024054;28;20029;-83
2024/01/19 11:21:41;;;;;;;9.18;3.00;;;11.30;95.80;;;;;;5016247;28;20040;-83
2024/01/19 11:24:08;;;;;;;5.93;2.67;;;11.40;94.30;;;;;;5016002;28;20117;-83
2024/01/19 11:26:49;;;;;;;5.38;1.98;;;11.50;92.70;;;;;;5026308;28;20033;-83
2024/01/19 11:29:22;;;;;;;7.38;2.40;;;11.50;91.40;;;;;;5028185;28;20021;-83
2024/01/19 11:31:50;;;;;;;6.30;2.03;;;11.40;91.10;;;;;;5028105;28;20021;-85
2024/01/19 11:34:50;;;;;;;5.00;1.85;;;11.40;90.60;;;;;;5026366;28;20037;-85
2024/01/19 11:37:44;;;;;;;5.63;2.40;;;11.50;89.50;;;;;;5027100;28;20025;-84
2024/01/19 11:40:30;;;;;;;4.63;1.92;;;11.50;88.10;;;;;;5033175;28;20080;-84
2024/01/19 11:42:56;;;;;;;5.32;1.75;;;11.50;87.20;;;;;;5023574;28;20038;-83
2024/01/19 11:45:28;;;;;;;7.53;2.60;;;11.40;84.50;;;;;;5027460;28;20022;-84
2024/01/19 11:47:57;;;;;;;5.82;1.90;;;11.30;83.00;;;;;;5024862;28;20038;-83
2024/01/19 11:50:45;;;;;;;6.93;2.33;;;11.20;82.80;;;;;;5015534;28;20052;-83
2024/01/19 11:53:11;;;;;;;8.25;2.50;;;11.10;80.20;;;;;;5022622;28;20009;-83
2024/01/19 11:55:42;;;;;;;9.23;2.10;;;10.80;78.60;;;;;;5024707;28;20025;-83
2024/01/19 11:58:27;;;;;;;8.43;2.33;;;10.40;77.30;;;;;;5019379;28;20054;-84
2024/01/19 12:00:58;;;;;;;8.63;2.50;;;10.20;79.50;;;;;;5024532;28;20052;-83
2024/01/19 12:03:24;;;;;;;7.32;2.03;;;10.40;80.80;;;;;;5025761;28;20486;-83
2024/01/19 12:05:53;;;;;;;9.57;2.58;;;10.70;80.20;;;;;;5024874;28;20020;-83
2024/01/19 12:08:18;;;;;;;5.10;2.20;;;10.90;79.60;;;;;;5022635;28;20053;-84
2024/01/19 12:10:44;;;;;;;6.63;2.35;;;11.10;78.30;;;;;;5025755;28;20523;-84
2024/01/19 12:13:11;;;;;;;8.52;1.77;;;11.30;77.70;;;;;;5024896;28;20382;-84
2024/01/19 12:15:37;;;;;;;5.28;1.73;;;11.40;76.50;;;;;;5022963;28;20180;-84
2024/01/19 12:18:04;;;;;;;5.15;1.75;;;11.50;75.70;;;;;;5024790;28;20017;-83
2024/01/19 12:20:30;;;;;;;7.65;1.98;;;11.60;74.50;;;;;;5030372;28;20036;-84
2024/01/19 12:22:57;;;;;;;7.50;1.60;;;11.60;72.50;;;;;;5025237;28;20563;-83
2024/01/19 12:25:24;;;;;;;6.03;1.52;;;11.70;73.20;;;;;;5024108;28;20140;-84
2024/01/19 12:28:04;;;;;;;8.30;2.17;;;11.80;73.30;;;;;;5024519;28;20065;-84
2024/01/19 12:30:34;;;;;;;7.80;2.45;;;12.10;72.70;;;;;;5023299;28;20386;-83
2024/01/19 12:33:17;;;;;;;4.28;1.55;;;12.40;71.90;;;;;;5025025;28;20022;-83
2024/01/19 12:35:43;;;;;;;6.45;1.67;;;12.70;70.90;;;;;;5031674;28;20010;-84
2024/01/19 12:38:09;;;;;;;6.32;1.63;;;13.00;71.20;;;;;;5027070;28;20025;-84
2024/01/19 12:40:36;;;;;;;8.73;1.85;;;13.40;70.20;;;;;;5023965;28;20017;-85
2024/01/19 12:43:03;;;;;;;5.78;1.92;;;13.70;69.70;;;;;;5025530;28;20469;-84
2024/01/19 12:45:29;;;;;;;8.88;2.20;;;13.80;67.30;;;;;;5022984;28;20053;-84
2024/01/19 12:47:55;;;;;;;6.07;2.10;;;14.00;66.50;;;;;;5024096;28;20470;-84